createdAt,value
2018-03-03T00:01:56.291Z,96290.77
2018-03-03T00:04:24.056Z,96284.31
2018-03-03T00:06:51.754Z,96283.37
2018-03-03T00:09:19.428Z,96281.19
2018-03-03T00:11:47.190Z,96282.77
2018-03-03T00:14:14.867Z,96283.42
2018-03-03T00:16:42.591Z,96283.13
2018-03-03T00:19:10.262Z,96280.52
2018-03-03T00:21:37.940Z,96288.17
2018-03-03T00:24:05.648Z,96283.08
2018-03-03T00:26:33.381Z,96289.46
2018-03-03T00:29:01.084Z,96293.22
2018-03-03T00:31:28.879Z,96298.07
2018-03-03T00:33:56.789Z,96299.13
2018-03-03T00:36:24.535Z,96292.85
2018-03-03T00:38:52.270Z,96292.07
2018-03-03T00:41:20.006Z,96287.90
2018-03-03T00:43:47.738Z,96285.82
2018-03-03T00:46:15.438Z,96280.95
2018-03-03T00:48:43.275Z,96277.63
2018-03-03T00:51:11.034Z,96287.36
2018-03-03T00:53:38.758Z,96292.38
2018-03-03T00:56:06.618Z,96298.75
2018-03-03T00:58:34.514Z,96308.34
2018-03-03T01:01:02.209Z,96320.25
2018-03-03T01:03:30.165Z,96304.84
2018-03-03T01:05:57.877Z,96305.82
2018-03-03T01:08:25.649Z,96301.59
2018-03-03T01:10:53.356Z,96291.64
2018-03-03T01:13:21.031Z,96294.56
2018-03-03T01:15:48.749Z,96298.59
2018-03-03T01:18:16.415Z,96286.59
2018-03-03T01:20:44.282Z,96286.29
2018-03-03T01:23:11.975Z,96298.09
2018-03-03T01:25:39.699Z,96293.22
2018-03-03T01:28:07.410Z,96293.07
2018-03-03T01:30:35.229Z,96283.23
2018-03-03T01:33:03.023Z,96284.79
2018-03-03T01:35:30.724Z,96283.78
2018-03-03T01:37:58.455Z,96299.91
2018-03-03T01:40:26.276Z,96298.75
2018-03-03T01:42:53.998Z,96309.63
2018-03-03T01:45:21.753Z,96299.55
2018-03-03T01:47:49.627Z,96295.58
2018-03-03T01:50:17.708Z,96304.89
2018-03-03T01:52:45.382Z,96307.41
2018-03-03T01:55:13.080Z,96305.44
2018-03-03T01:57:40.800Z,96310.69
2018-03-03T02:00:08.499Z,96311.19
2018-03-03T02:02:36.212Z,96303.12
2018-03-03T02:05:03.930Z,96293.19
2018-03-03T02:07:32.094Z,96289.61
2018-03-03T02:09:59.831Z,96287.97
2018-03-03T02:12:27.523Z,96285.02
2018-03-03T02:14:55.355Z,96287.07
2018-03-03T02:17:23.032Z,96288.93
2018-03-03T02:19:50.742Z,96278.26
2018-03-03T02:22:18.474Z,96279.22
2018-03-03T02:24:46.231Z,96284.85
2018-03-03T02:27:13.900Z,96277.16
2018-03-03T02:29:41.597Z,96274.70
2018-03-03T02:32:09.298Z,96274.99
2018-03-03T02:34:36.979Z,96281.02
2018-03-03T02:37:04.740Z,96273.38
2018-03-03T02:39:32.479Z,96268.02
2018-03-03T02:42:00.789Z,96273.98
2018-03-03T02:44:28.519Z,96281.53
2018-03-03T02:46:56.235Z,96269.42
2018-03-03T02:49:23.987Z,96267.41
2018-03-03T02:51:51.717Z,96259.67
2018-03-03T02:54:19.627Z,96263.80
2018-03-03T02:56:47.367Z,96244.55
2018-03-03T02:59:15.528Z,96243.27
2018-03-03T03:01:43.232Z,96253.22
2018-03-03T03:04:10.956Z,96248.23
2018-03-03T03:06:38.713Z,96255.79
2018-03-03T03:09:06.404Z,96262.98
2018-03-03T03:11:34.877Z,96264.21
2018-03-03T03:14:02.627Z,96257.55
2018-03-03T03:16:30.426Z,96241.22
2018-03-03T03:18:58.161Z,96242.22
2018-03-03T03:21:25.895Z,96238.64
2018-03-03T03:23:53.674Z,96231.67
2018-03-03T03:26:21.381Z,96226.91
2018-03-03T03:28:49.079Z,96216.11
2018-03-03T03:31:16.758Z,96216.31
2018-03-03T03:33:44.668Z,96205.55
2018-03-03T03:36:12.343Z,96205.48
2018-03-03T03:38:40.075Z,96205.77
2018-03-03T03:41:07.781Z,96205.63
2018-03-03T03:43:35.456Z,96193.28
2018-03-03T03:46:03.200Z,96199.61
2018-03-03T03:48:30.906Z,96202.62
2018-03-03T03:50:58.825Z,96201.88
2018-03-03T03:53:26.555Z,96203.28
2018-03-03T03:55:54.253Z,96200.33
2018-03-03T03:58:22.004Z,96195.89
2018-03-03T04:00:49.687Z,96194.16
2018-03-03T04:03:17.479Z,96191.40
2018-03-03T04:05:45.218Z,96187.77
2018-03-03T04:08:13.175Z,96190.63
2018-03-03T04:10:40.852Z,96182.48
2018-03-03T04:13:08.532Z,96179.70
2018-03-03T04:15:36.224Z,96171.08
2018-03-03T04:18:04.123Z,96170.59
2018-03-03T04:20:31.813Z,96164.59
2018-03-03T04:22:59.542Z,96160.28
2018-03-03T04:25:27.265Z,96150.05
2018-03-03T04:27:54.964Z,96162.30
2018-03-03T04:30:22.702Z,96158.36
2018-03-03T04:32:50.461Z,96156.88
2018-03-03T04:35:18.428Z,96160.89
2018-03-03T04:37:46.206Z,96161.41
2018-03-03T04:40:13.916Z,96154.59
2018-03-03T04:42:41.703Z,96161.37
2018-03-03T04:45:09.605Z,96155.27
2018-03-03T04:47:37.361Z,96156.86
2018-03-03T04:50:05.126Z,96151.02
2018-03-03T04:52:33.245Z,96143.00
2018-03-03T04:55:00.948Z,96138.91
2018-03-03T04:57:28.736Z,96142.39
2018-03-03T05:00:02.946Z,96135.28
2018-03-03T05:02:36.142Z,96132.73
2018-03-03T05:08:14.780Z,96142.52
2018-03-03T05:10:43.414Z,96140.73
2018-03-03T05:16:21.715Z,96141.62
2018-03-03T05:18:55.225Z,96132.59
2018-03-03T05:21:25.226Z,96134.11
2018-03-03T05:23:58.374Z,96134.56
2018-03-03T05:26:31.713Z,96137.34
2018-03-03T05:29:04.869Z,96134.93
2018-03-03T05:31:38.106Z,96131.83
2018-03-03T05:34:11.274Z,96123.97
2018-03-03T05:40:02.245Z,96118.02
2018-03-03T05:42:35.520Z,96110.99
2018-03-03T05:48:13.787Z,96098.53
2018-03-03T05:53:53.542Z,96106.91
2018-03-03T05:56:26.788Z,96103.27
2018-03-03T05:58:58.381Z,96101.58
2018-03-03T06:01:30.510Z,96107.18
2018-03-03T06:03:58.663Z,96096.39
2018-03-03T06:09:40.413Z,96108.34
2018-03-03T06:12:08.136Z,96104.06
2018-03-03T06:14:35.919Z,96096.14
2018-03-03T06:17:03.595Z,96107.41
2018-03-03T06:19:31.317Z,96105.80
2018-03-03T06:21:59.023Z,96110.48
2018-03-03T06:24:27.284Z,96114.20
2018-03-03T06:26:54.962Z,96108.91
2018-03-03T06:29:22.907Z,96114.86
2018-03-03T06:31:50.599Z,96112.73
2018-03-03T06:34:18.322Z,96111.66
2018-03-03T06:36:46.069Z,96115.46
2018-03-03T06:39:13.754Z,96116.16
2018-03-03T06:41:41.752Z,96104.24
2018-03-03T06:44:09.434Z,96103.02
2018-03-03T06:46:37.113Z,96103.09
2018-03-03T06:49:04.859Z,96100.09
2018-03-03T06:51:32.584Z,96107.97
2018-03-03T06:54:00.341Z,96104.95
2018-03-03T06:56:28.107Z,96105.44
2018-03-03T06:58:56.188Z,96114.71
2018-03-03T07:01:23.934Z,96110.77
2018-03-03T07:03:51.611Z,96108.81
2018-03-03T07:06:19.358Z,96105.91
2018-03-03T07:08:47.020Z,96103.09
2018-03-03T07:11:14.727Z,96103.38
2018-03-03T07:13:42.414Z,96089.58
2018-03-03T07:16:10.217Z,96085.44
2018-03-03T07:18:37.950Z,96089.78
2018-03-03T07:21:05.615Z,96085.36
2018-03-03T07:23:33.576Z,96076.58
2018-03-03T07:26:01.261Z,96082.75
2018-03-03T07:28:29.032Z,96088.45
2018-03-03T07:30:56.746Z,96089.56
2018-03-03T07:33:24.709Z,96096.01
2018-03-03T07:35:52.452Z,96096.77
2018-03-03T07:38:20.137Z,96093.56
2018-03-03T07:40:47.838Z,96095.73
2018-03-03T07:43:15.515Z,96098.52
2018-03-03T07:45:43.245Z,96097.69
2018-03-03T07:48:10.975Z,96097.09
2018-03-03T07:50:38.858Z,96092.92
2018-03-03T07:53:06.578Z,96098.69
2018-03-03T07:55:34.304Z,96097.34
2018-03-03T07:58:02.052Z,96100.95
2018-03-03T08:00:29.724Z,96102.07
2018-03-03T08:02:57.440Z,96100.44
2018-03-03T08:05:25.140Z,96100.55
2018-03-03T08:07:52.847Z,96094.88
2018-03-03T08:10:20.564Z,96100.38
2018-03-03T08:12:48.271Z,96100.74
2018-03-03T08:15:16.007Z,96094.59
2018-03-03T08:17:43.679Z,96101.56
2018-03-03T08:20:11.367Z,96104.48
2018-03-03T08:22:39.090Z,96105.86
2018-03-03T08:25:06.781Z,96101.55
2018-03-03T08:27:34.467Z,96105.92
2018-03-03T08:30:02.219Z,96108.91
2018-03-03T08:32:29.975Z,96100.47
2018-03-03T08:34:57.797Z,96099.77
2018-03-03T08:37:25.522Z,96087.24
2018-03-03T08:39:53.410Z,96092.56
2018-03-03T08:42:21.142Z,96093.73
2018-03-03T08:44:48.865Z,96094.38
2018-03-03T08:47:16.572Z,96097.77
2018-03-03T08:49:44.245Z,96092.89
2018-03-03T08:52:11.942Z,96091.67
2018-03-03T08:54:39.624Z,96086.87
2018-03-03T08:57:07.619Z,96087.19
2018-03-03T08:59:35.289Z,96087.28
2018-03-03T09:02:03.024Z,96090.62
2018-03-03T09:04:30.771Z,96089.27
2018-03-03T09:06:58.457Z,96084.63
2018-03-03T09:09:26.167Z,96084.25
2018-03-03T09:11:53.854Z,96076.81
2018-03-03T09:14:22.079Z,96072.80
2018-03-03T09:16:49.767Z,96073.72
2018-03-03T09:19:17.446Z,96069.59
2018-03-03T09:21:45.217Z,96067.16
2018-03-03T09:24:12.966Z,96072.27
2018-03-03T09:26:40.716Z,96070.34
2018-03-03T09:29:08.477Z,96074.52
2018-03-03T09:31:36.477Z,96082.27
2018-03-03T09:34:04.271Z,96082.12
2018-03-03T09:36:31.967Z,96079.05
2018-03-03T09:38:59.694Z,96068.82
2018-03-03T09:41:27.471Z,96075.19
2018-03-03T09:43:55.243Z,96074.80
2018-03-03T09:46:22.938Z,96072.53
2018-03-03T09:48:51.035Z,96073.78
2018-03-03T09:51:18.716Z,96072.98
2018-03-03T09:53:46.395Z,96068.04
2018-03-03T09:56:14.162Z,96074.80
2018-03-03T09:58:42.086Z,96080.50
2018-03-03T10:01:09.787Z,96070.72
2018-03-03T10:03:37.477Z,96074.33
2018-03-03T10:06:05.535Z,96077.73
2018-03-03T10:08:33.281Z,96073.72
2018-03-03T10:11:00.996Z,96078.59
2018-03-03T10:13:28.755Z,96078.11
2018-03-03T10:15:56.435Z,96073.02
2018-03-03T10:18:24.151Z,96074.88
2018-03-03T10:20:51.843Z,96070.90
2018-03-03T10:23:19.648Z,96077.17
2018-03-03T10:25:47.385Z,96058.86
2018-03-03T10:28:15.108Z,96064.79
2018-03-03T10:30:42.786Z,96064.40
2018-03-03T10:33:10.566Z,96060.40
2018-03-03T10:35:38.492Z,96065.09
2018-03-03T10:38:06.194Z,96059.25
2018-03-03T10:40:33.884Z,96053.97
2018-03-03T10:43:01.634Z,96048.73
2018-03-03T10:45:29.338Z,96044.79
2018-03-03T10:47:57.044Z,96049.97
2018-03-03T10:50:24.770Z,96053.19
2018-03-03T10:52:52.760Z,96054.38
2018-03-03T10:55:20.444Z,96057.20
2018-03-03T10:57:48.264Z,96047.70
2018-03-03T11:00:21.549Z,96040.14
2018-03-03T11:02:49.223Z,96033.45
2018-03-03T11:05:17.788Z,96037.20
2018-03-03T11:07:45.667Z,96038.24
2018-03-03T11:10:13.346Z,96037.23
2018-03-03T11:12:40.981Z,96040.53
2018-03-03T11:15:08.595Z,96032.77
2018-03-03T11:17:36.270Z,96035.39
2018-03-03T11:20:03.908Z,96026.88
2018-03-03T11:22:31.656Z,96029.23
2018-03-03T11:24:59.323Z,96035.59
2018-03-03T11:27:26.928Z,96030.05
2018-03-03T11:29:54.624Z,96022.36
2018-03-03T11:32:22.279Z,96028.81
2018-03-03T11:34:49.940Z,96026.98
2018-03-03T11:37:17.541Z,96019.04
2018-03-03T11:39:45.170Z,96021.80
2018-03-03T11:42:12.929Z,96020.44
2018-03-03T11:44:40.523Z,96011.25
2018-03-03T11:47:08.188Z,96014.38
2018-03-03T11:49:35.853Z,96012.88
2018-03-03T11:52:03.578Z,96019.50
2018-03-03T11:54:31.232Z,96021.93
2018-03-03T11:56:58.864Z,96012.19
2018-03-03T11:59:26.483Z,96011.70
2018-03-03T12:01:54.116Z,96013.28
2018-03-03T12:04:21.733Z,96012.95
2018-03-03T12:06:49.364Z,96018.88
2018-03-03T12:09:16.982Z,96015.39
2018-03-03T12:11:44.589Z,96012.09
2018-03-03T12:14:12.261Z,96008.23
2018-03-03T12:16:39.924Z,96013.02
2018-03-03T12:19:07.601Z,96011.27
2018-03-03T12:21:35.216Z,96009.73
2018-03-03T12:24:03.027Z,96011.09
2018-03-03T12:26:30.685Z,96011.02
2018-03-03T12:28:58.411Z,96010.97
2018-03-03T12:31:26.042Z,96009.91
2018-03-03T12:33:53.644Z,96008.28
2018-03-03T12:36:21.315Z,96012.75
2018-03-03T12:38:48.926Z,96015.02
2018-03-03T12:41:16.542Z,96012.48
2018-03-03T12:43:44.198Z,96011.00
2018-03-03T12:46:11.871Z,96022.64
2018-03-03T12:48:39.514Z,96024.34
2018-03-03T12:51:07.369Z,96024.80
2018-03-03T12:53:34.964Z,96019.72
2018-03-03T12:56:02.680Z,96021.23
2018-03-03T12:58:30.461Z,96022.95
2018-03-03T13:00:58.069Z,96019.41
2018-03-03T13:03:25.691Z,96026.19
2018-03-03T13:05:53.325Z,96032.76
2018-03-03T13:08:20.984Z,96039.67
2018-03-03T13:10:48.583Z,96039.81
2018-03-03T13:13:16.232Z,96038.37
2018-03-03T13:15:43.839Z,96034.38
2018-03-03T13:18:11.490Z,96041.44
2018-03-03T13:20:39.133Z,96037.97
2018-03-03T13:23:07.044Z,96039.02
2018-03-03T13:25:34.708Z,96037.55
2018-03-03T13:28:02.387Z,96044.11
2018-03-03T13:30:30.032Z,96048.00
2018-03-03T13:32:57.629Z,96048.11
2018-03-03T13:35:25.346Z,96046.81
2018-03-03T13:37:52.998Z,96042.27
2018-03-03T13:40:20.608Z,96047.95
2018-03-03T13:42:48.476Z,96042.88
2018-03-03T13:45:16.089Z,96051.64
2018-03-03T13:47:43.750Z,96053.37
2018-03-03T13:50:11.477Z,96050.66
2018-03-03T13:52:39.069Z,96048.66
2018-03-03T13:55:06.723Z,96055.41
2018-03-03T13:57:34.336Z,96055.02
2018-03-03T14:00:01.936Z,96063.88
2018-03-03T14:02:29.696Z,96066.88
2018-03-03T14:04:57.359Z,96065.72
2018-03-03T14:07:25.059Z,96072.85
2018-03-03T14:09:52.661Z,96078.63
2018-03-03T14:12:20.275Z,96073.80
2018-03-03T14:14:47.954Z,96080.09
2018-03-03T14:17:15.651Z,96082.31
2018-03-03T14:19:43.399Z,96080.59
2018-03-03T14:22:11.091Z,96078.09
2018-03-03T14:24:38.792Z,96085.25
2018-03-03T14:27:06.451Z,96085.34
2018-03-03T14:29:35.050Z,96082.20
2018-03-03T14:32:02.726Z,96086.98
2018-03-03T14:34:31.086Z,96090.52
2018-03-03T14:36:58.761Z,96093.98
2018-03-03T14:39:26.376Z,96091.70
2018-03-03T14:41:54.009Z,96096.78
2018-03-03T14:44:21.643Z,96107.56
2018-03-03T14:46:49.338Z,96104.22
2018-03-03T14:49:16.924Z,96103.97
2018-03-03T14:51:44.995Z,96105.14
2018-03-03T14:54:12.653Z,96105.56
2018-03-03T14:56:40.307Z,96108.70
2018-03-03T14:59:08.018Z,96106.51
2018-03-03T15:01:35.621Z,96102.86
2018-03-03T15:04:03.281Z,96104.63
2018-03-03T15:06:30.920Z,96104.66
2018-03-03T15:08:58.559Z,96098.73
2018-03-03T15:11:26.223Z,96107.81
2018-03-03T15:13:53.899Z,96102.97
2018-03-03T15:16:21.532Z,96113.56
2018-03-03T15:18:49.208Z,96111.61
2018-03-03T15:21:16.815Z,96108.95
2018-03-03T15:23:44.488Z,96106.98
2018-03-03T15:26:12.135Z,96103.97
2018-03-03T15:28:39.795Z,96116.70
2018-03-03T15:31:07.441Z,96117.22
2018-03-03T15:33:35.111Z,96118.64
2018-03-03T15:36:02.786Z,96116.65
2018-03-03T15:38:30.473Z,96117.69
2018-03-03T15:40:58.217Z,96126.05
2018-03-03T15:43:25.997Z,96136.19
2018-03-03T15:45:53.848Z,96135.19
2018-03-03T15:48:21.548Z,96136.37
2018-03-03T15:50:49.341Z,96142.20
2018-03-03T15:53:17.008Z,96147.42
2018-03-03T15:55:44.692Z,96149.30
2018-03-03T15:58:12.421Z,96160.64
2018-03-03T16:00:40.130Z,96162.13
2018-03-03T16:03:07.865Z,96161.34
2018-03-03T16:05:35.516Z,96173.13
2018-03-03T16:08:03.206Z,96173.72
2018-03-03T16:10:30.836Z,96174.22
2018-03-03T16:12:58.856Z,96180.56
2018-03-03T16:15:26.450Z,96188.98
2018-03-03T16:17:54.128Z,96187.00
2018-03-03T16:20:21.836Z,96186.53
2018-03-03T16:22:49.614Z,96186.62
2018-03-03T16:25:17.442Z,96180.32
2018-03-03T16:27:45.092Z,96181.33
2018-03-03T16:30:12.703Z,96187.55
2018-03-03T16:32:40.362Z,96185.49
2018-03-03T16:35:08.031Z,96187.39
2018-03-03T16:37:35.751Z,96195.02
2018-03-03T16:40:03.748Z,96197.16
2018-03-03T16:42:31.469Z,96199.03
2018-03-03T16:44:59.100Z,96198.72
2018-03-03T16:47:26.818Z,96203.14
2018-03-03T16:49:54.420Z,96206.69
2018-03-03T16:52:22.137Z,96209.89
2018-03-03T16:54:49.865Z,96211.48
2018-03-03T16:57:17.740Z,96223.66
2018-03-03T16:59:45.395Z,96221.63
2018-03-03T17:02:13.041Z,96219.56
2018-03-03T17:04:40.720Z,96222.71
2018-03-03T17:07:08.363Z,96227.20
2018-03-03T17:09:35.994Z,96231.81
2018-03-03T17:12:03.633Z,96230.85
2018-03-03T17:14:31.563Z,96234.19
2018-03-03T17:16:59.603Z,96240.73
2018-03-03T17:19:28.415Z,96240.67
2018-03-03T17:21:56.075Z,96245.24
2018-03-03T17:24:23.680Z,96242.48
2018-03-03T17:26:51.324Z,96243.67
2018-03-03T17:29:18.915Z,96246.30
2018-03-03T17:31:46.686Z,96251.28
2018-03-03T17:34:14.305Z,96254.48
2018-03-03T17:36:42.030Z,96254.01
2018-03-03T17:39:09.932Z,96254.73
2018-03-03T17:41:37.579Z,96259.13
2018-03-03T17:44:05.324Z,96265.62
2018-03-03T17:46:33.376Z,96261.49
2018-03-03T17:49:01.127Z,96266.34
2018-03-03T17:51:28.795Z,96261.64
2018-03-03T17:53:56.790Z,96262.89
2018-03-03T17:56:24.547Z,96262.06
2018-03-03T17:58:52.204Z,96269.99
2018-03-03T18:01:19.871Z,96275.03
2018-03-03T18:03:47.473Z,96274.34
2018-03-03T18:06:15.331Z,96279.73
2018-03-03T18:08:42.994Z,96276.52
2018-03-03T18:11:10.617Z,96278.51
2018-03-03T18:13:38.381Z,96279.78
2018-03-03T18:16:05.972Z,96282.93
2018-03-03T18:18:33.800Z,96282.11
2018-03-03T18:21:01.476Z,96293.00
2018-03-03T18:23:29.171Z,96292.78
2018-03-03T18:25:56.895Z,96293.92
2018-03-03T18:28:24.603Z,96295.16
2018-03-03T18:30:52.335Z,96295.14
2018-03-03T18:33:20.093Z,96302.33
2018-03-03T18:35:47.842Z,96305.93
2018-03-03T18:38:15.595Z,96311.36
2018-03-03T18:40:43.269Z,96315.01
2018-03-03T18:43:11.003Z,96316.66
2018-03-03T18:45:38.732Z,96316.17
2018-03-03T18:48:06.693Z,96318.04
2018-03-03T18:50:34.367Z,96320.70
2018-03-03T18:53:02.036Z,96325.06
2018-03-03T18:55:29.770Z,96324.05
2018-03-03T18:57:57.450Z,96320.83
2018-03-03T19:00:25.186Z,96325.59
2018-03-03T19:02:52.861Z,96331.66
2018-03-03T19:05:20.573Z,96337.25
2018-03-03T19:07:48.301Z,96337.53
2018-03-03T19:10:15.972Z,96338.41
2018-03-03T19:12:43.680Z,96344.64
2018-03-03T19:15:11.348Z,96349.41
2018-03-03T19:17:39.049Z,96349.09
2018-03-03T19:20:06.772Z,96351.16
2018-03-03T19:22:34.513Z,96355.40
2018-03-03T19:25:02.236Z,96357.67
2018-03-03T19:27:30.227Z,96345.91
2018-03-03T19:29:57.975Z,96354.70
2018-03-03T19:32:25.656Z,96362.54
2018-03-03T19:34:53.348Z,96359.47
2018-03-03T19:37:21.083Z,96364.11
2018-03-03T19:39:48.781Z,96364.41
2018-03-03T19:42:16.521Z,96367.41
2018-03-03T19:44:44.584Z,96373.13
2018-03-03T19:47:12.317Z,96375.59
2018-03-03T19:49:40.034Z,96368.16
2018-03-03T19:52:07.742Z,96368.64
2018-03-03T19:54:35.426Z,96372.15
2018-03-03T19:57:03.137Z,96371.07
2018-03-03T19:59:30.923Z,96370.28
2018-03-03T20:01:58.848Z,96368.84
2018-03-03T20:04:26.530Z,96366.88
2018-03-03T20:06:54.200Z,96370.86
2018-03-03T20:09:21.952Z,96374.59
2018-03-03T20:11:49.631Z,96373.16
2018-03-03T20:14:17.399Z,96379.14
2018-03-03T20:16:45.073Z,96384.17
2018-03-03T20:19:13.348Z,96377.92
2018-03-03T20:21:41.071Z,96381.46
2018-03-03T20:24:08.748Z,96385.94
2018-03-03T20:26:36.519Z,96387.33
2018-03-03T20:29:04.307Z,96394.11
2018-03-03T20:31:32.003Z,96394.08
2018-03-03T20:33:59.758Z,96400.70
2018-03-03T20:36:27.519Z,96400.72
2018-03-03T20:38:55.223Z,96404.58
2018-03-03T20:41:22.896Z,96407.36
2018-03-03T20:43:50.653Z,96402.94
2018-03-03T20:46:18.330Z,96399.79
2018-03-03T20:48:46.053Z,96410.72
2018-03-03T20:51:13.793Z,96415.45
2018-03-03T20:53:41.745Z,96420.64
2018-03-03T20:56:09.478Z,96424.91
2018-03-03T20:58:37.208Z,96423.78
2018-03-03T21:01:04.956Z,96428.80
2018-03-03T21:03:32.680Z,96430.64
2018-03-03T21:06:00.565Z,96427.33
2018-03-03T21:08:28.249Z,96421.02
2018-03-03T21:10:56.000Z,96405.80
2018-03-03T21:13:23.758Z,96404.10
2018-03-03T21:15:51.437Z,96408.06
2018-03-03T21:18:19.189Z,96416.86
2018-03-03T21:20:46.861Z,96420.28
2018-03-03T21:23:14.926Z,96418.47
2018-03-03T21:25:42.690Z,96417.82
2018-03-03T21:28:10.367Z,96418.55
2018-03-03T21:30:38.111Z,96426.87
2018-03-03T21:33:05.788Z,96428.97
2018-03-03T21:35:33.570Z,96427.77
2018-03-03T21:38:01.301Z,96420.04
2018-03-03T21:40:29.011Z,96420.27
2018-03-03T21:42:56.945Z,96428.67
2018-03-03T21:45:24.618Z,96426.84
2018-03-03T21:47:52.319Z,96428.88
2018-03-03T21:50:23.264Z,96424.36
2018-03-03T21:52:51.150Z,96435.31
2018-03-03T21:55:18.876Z,96437.17
2018-03-03T21:57:46.840Z,96443.41
2018-03-03T22:00:14.547Z,96441.13
2018-03-03T22:02:42.236Z,96443.78
2018-03-03T22:05:10.089Z,96451.62
2018-03-03T22:07:37.895Z,96448.59
2018-03-03T22:10:05.638Z,96449.91
2018-03-03T22:12:33.350Z,96450.88
2018-03-03T22:15:01.225Z,96458.20
2018-03-03T22:17:28.973Z,96456.25
2018-03-03T22:19:56.726Z,96451.70
2018-03-03T22:22:24.676Z,96452.82
2018-03-03T22:24:52.383Z,96450.55
2018-03-03T22:27:20.188Z,96456.37
2018-03-03T22:29:48.183Z,96447.50
2018-03-03T22:32:15.905Z,96450.61
2018-03-03T22:34:43.806Z,96451.16
2018-03-03T22:37:11.583Z,96457.19
2018-03-03T22:39:39.419Z,96459.27
2018-03-03T22:42:07.123Z,96458.66
2018-03-03T22:44:34.975Z,96460.20
2018-03-03T22:47:02.716Z,96456.46
2018-03-03T22:49:30.396Z,96460.39
2018-03-03T22:51:58.509Z,96454.57
2018-03-03T22:54:26.238Z,96454.28
2018-03-03T22:56:53.912Z,96451.72
2018-03-03T22:59:21.821Z,96447.97
2018-03-03T23:01:49.489Z,96447.50
2018-03-03T23:04:17.302Z,96446.97
2018-03-03T23:06:44.972Z,96443.24
2018-03-03T23:09:12.955Z,96442.47
2018-03-03T23:11:41.329Z,96446.45
2018-03-03T23:14:09.113Z,96450.36
2018-03-03T23:16:36.829Z,96447.81
2018-03-03T23:19:04.546Z,96452.05
2018-03-03T23:21:32.299Z,96460.47
2018-03-03T23:23:59.989Z,96461.62
2018-03-03T23:26:27.925Z,96460.49
2018-03-03T23:28:55.758Z,96460.88
2018-03-03T23:31:23.485Z,96461.97
2018-03-03T23:33:51.185Z,96455.57
2018-03-03T23:36:18.903Z,96451.73
2018-03-03T23:38:46.605Z,96451.05
2018-03-03T23:41:14.377Z,96450.90
2018-03-03T23:43:42.761Z,96465.05
2018-03-03T23:46:10.456Z,96464.30
2018-03-03T23:48:38.194Z,96468.25
2018-03-03T23:51:05.942Z,96470.32
2018-03-03T23:53:33.610Z,96476.23
2018-03-03T23:56:01.313Z,96478.16
2018-03-03T23:58:29.035Z,96473.81
